createdAt,value
2022-08-22T00:02:56.261Z,3.00
2022-08-22T00:03:31.688Z,3.10
2022-08-22T00:04:06.904Z,3.30
2022-08-22T00:05:06.939Z,3.40
2022-08-22T00:06:07.858Z,3.20
2022-08-22T00:07:07.060Z,3.00
2022-08-22T00:08:06.890Z,3.10
2022-08-22T00:09:06.824Z,3.00
2022-08-22T00:10:06.874Z,3.00
2022-08-22T00:11:06.884Z,2.70
2022-08-22T00:12:06.836Z,3.20
2022-08-22T00:13:06.836Z,3.30
2022-08-22T00:14:06.858Z,3.10
2022-08-22T00:15:06.799Z,3.50
2022-08-22T00:16:06.742Z,3.10
2022-08-22T00:17:06.815Z,3.40
2022-08-22T00:18:06.789Z,3.50
2022-08-22T00:19:06.741Z,3.30
2022-08-22T00:20:06.888Z,3.50
2022-08-22T00:21:08.852Z,2.70
2022-08-22T00:22:06.703Z,3.00
2022-08-22T00:23:06.740Z,2.60
2022-08-22T00:24:07.179Z,2.80
2022-08-22T00:25:06.862Z,2.60
2022-08-22T00:26:06.768Z,2.50
2022-08-22T00:27:06.693Z,2.60
2022-08-22T00:28:06.703Z,3.50
2022-08-22T00:29:07.208Z,2.70
2022-08-22T00:30:07.575Z,2.70
2022-08-22T00:31:06.583Z,3.10
2022-08-22T00:32:06.719Z,2.60
2022-08-22T00:33:06.754Z,2.60
2022-08-22T00:34:06.797Z,2.70
2022-08-22T00:35:06.614Z,2.20
2022-08-22T00:36:06.556Z,2.40
2022-08-22T00:37:06.587Z,2.40
2022-08-22T00:38:06.658Z,2.20
2022-08-22T00:39:06.616Z,2.20
2022-08-22T00:40:06.751Z,2.20
2022-08-22T00:41:06.496Z,2.70
2022-08-22T00:42:06.455Z,2.80
2022-08-22T00:43:06.579Z,2.50
2022-08-22T00:44:07.481Z,2.30
2022-08-22T00:45:06.502Z,3.00
2022-08-22T00:46:06.462Z,3.30
2022-08-22T00:47:06.543Z,3.40
2022-08-22T00:48:06.404Z,3.60
2022-08-22T00:49:06.655Z,2.70
2022-08-22T00:50:06.612Z,2.70
2022-08-22T00:51:06.424Z,2.30
2022-08-22T00:52:06.412Z,3.00
2022-08-22T00:53:06.312Z,2.80
2022-08-22T00:54:06.886Z,2.60
2022-08-22T00:55:06.312Z,2.70
2022-08-22T00:56:06.341Z,2.90
2022-08-22T00:57:06.295Z,2.60
2022-08-22T00:58:06.276Z,2.40
2022-08-22T00:59:23.342Z,2.90
2022-08-22T01:00:06.243Z,2.80
2022-08-22T01:01:06.280Z,2.80
2022-08-22T01:02:06.292Z,2.30
2022-08-22T01:03:06.223Z,2.50
2022-08-22T01:04:06.219Z,2.60
2022-08-22T01:05:06.208Z,2.20
2022-08-22T01:06:06.438Z,2.20
2022-08-22T01:07:06.196Z,2.50
2022-08-22T01:08:06.238Z,2.10
2022-08-22T01:09:06.217Z,2.50
2022-08-22T01:10:06.160Z,2.60
2022-08-22T01:11:07.036Z,2.70
2022-08-22T01:12:06.117Z,3.10
2022-08-22T01:13:06.113Z,2.60
2022-08-22T01:14:06.961Z,2.60
2022-08-22T01:15:06.095Z,2.30
2022-08-22T01:16:06.098Z,2.30
2022-08-22T01:17:06.049Z,2.50
2022-08-22T01:18:06.063Z,2.50
2022-08-22T01:19:06.120Z,2.50
2022-08-22T01:20:06.060Z,2.20
2022-08-22T01:21:06.021Z,2.20
2022-08-22T01:22:05.993Z,2.00
2022-08-22T01:23:05.973Z,2.20
2022-08-22T01:24:05.990Z,1.80
2022-08-22T01:25:05.978Z,2.10
2022-08-22T01:26:06.003Z,2.40
2022-08-22T01:27:05.983Z,2.10
2022-08-22T01:28:05.938Z,2.20
2022-08-22T01:29:05.945Z,2.10
2022-08-22T01:30:05.956Z,2.60
2022-08-22T01:31:05.907Z,2.30
2022-08-22T01:32:05.938Z,2.60
2022-08-22T01:33:05.890Z,2.40
2022-08-22T01:34:05.893Z,2.50
2022-08-22T01:35:05.892Z,2.20
2022-08-22T01:36:05.851Z,2.30
2022-08-22T01:37:05.823Z,2.30
2022-08-22T01:38:05.879Z,2.20
2022-08-22T01:39:05.817Z,2.30
2022-08-22T01:40:05.880Z,2.60
2022-08-22T01:41:05.797Z,2.50
2022-08-22T01:42:05.796Z,2.60
2022-08-22T01:43:05.755Z,2.60
2022-08-22T01:44:05.783Z,2.60
2022-08-22T01:45:05.741Z,3.00
2022-08-22T01:46:05.716Z,2.90
2022-08-22T01:47:05.720Z,2.90
2022-08-22T01:48:05.718Z,3.60
2022-08-22T01:49:05.689Z,3.00
2022-08-22T01:50:05.735Z,2.50
2022-08-22T01:51:05.669Z,2.70
2022-08-22T01:52:05.751Z,2.50
2022-08-22T01:53:05.681Z,2.70
2022-08-22T01:54:06.213Z,2.50
2022-08-22T01:55:05.622Z,2.50
2022-08-22T01:56:05.647Z,2.90
2022-08-22T01:57:05.595Z,3.50
2022-08-22T01:58:06.217Z,2.90
2022-08-22T01:59:05.615Z,2.80
2022-08-22T02:00:05.574Z,2.70
2022-08-22T02:01:05.594Z,3.40
2022-08-22T02:02:05.600Z,2.80
2022-08-22T02:03:05.541Z,3.00
2022-08-22T02:04:05.547Z,2.80
2022-08-22T02:05:05.541Z,2.50
2022-08-22T02:06:05.494Z,2.40
2022-08-22T02:07:05.486Z,2.40
2022-08-22T02:08:05.521Z,2.40
2022-08-22T02:09:05.510Z,3.30
2022-08-22T02:10:05.463Z,3.20
2022-08-22T02:11:05.494Z,3.10
2022-08-22T02:12:05.450Z,3.00
2022-08-22T02:13:05.450Z,2.30
2022-08-22T02:14:06.170Z,2.60
2022-08-22T02:15:05.410Z,2.40
2022-08-22T02:16:05.449Z,2.90
2022-08-22T02:17:05.386Z,2.90
2022-08-22T02:18:05.455Z,2.80
2022-08-22T02:19:05.401Z,2.70
2022-08-22T02:20:05.449Z,2.30
2022-08-22T02:21:05.354Z,2.60
2022-08-22T02:22:06.108Z,2.80
2022-08-22T02:23:05.316Z,3.00
2022-08-22T02:24:05.299Z,2.90
2022-08-22T02:25:09.002Z,2.70
2022-08-22T02:26:05.301Z,3.40
2022-08-22T02:27:05.264Z,2.60
2022-08-22T02:28:05.264Z,2.70
2022-08-22T02:29:05.317Z,2.70
2022-08-22T02:30:06.024Z,2.50
2022-08-22T02:31:08.857Z,2.50
2022-08-22T02:32:05.250Z,2.90
2022-08-22T02:33:05.219Z,2.70
2022-08-22T02:34:05.211Z,2.60
2022-08-22T02:35:05.199Z,2.30
2022-08-22T02:36:05.699Z,2.40
2022-08-22T02:37:05.164Z,2.80
2022-08-22T02:38:05.169Z,3.20
2022-08-22T02:39:05.713Z,2.70
2022-08-22T02:40:05.674Z,3.00
2022-08-22T02:41:05.353Z,2.80
2022-08-22T02:42:05.178Z,2.90
2022-08-22T02:43:05.084Z,2.80
2022-08-22T02:44:05.098Z,3.60
2022-08-22T02:45:05.069Z,3.20
2022-08-22T02:46:05.042Z,3.20
2022-08-22T02:47:05.038Z,3.20
2022-08-22T02:48:05.037Z,3.20
2022-08-22T02:49:05.022Z,3.40
2022-08-22T02:50:05.058Z,2.80
2022-08-22T02:51:05.691Z,3.00
2022-08-22T02:52:04.975Z,2.90
2022-08-22T02:53:04.986Z,2.70
2022-08-22T02:54:05.070Z,2.90
2022-08-22T02:55:04.953Z,2.80
2022-08-22T02:56:05.204Z,3.00
2022-08-22T02:57:04.934Z,3.30
2022-08-22T02:58:04.932Z,3.00
2022-08-22T02:59:04.908Z,3.00
2022-08-22T03:00:04.904Z,2.60
2022-08-22T03:01:05.090Z,3.20
2022-08-22T03:02:05.196Z,2.60
2022-08-22T03:03:04.894Z,2.70
2022-08-22T03:04:05.009Z,2.50
2022-08-22T03:05:04.856Z,2.60
2022-08-22T03:06:04.978Z,3.40
2022-08-22T03:07:04.838Z,3.60
2022-08-22T03:08:04.885Z,2.90
2022-08-22T03:09:04.812Z,3.20
2022-08-22T03:10:04.796Z,3.30
2022-08-22T03:11:05.658Z,3.00
2022-08-22T03:12:04.769Z,3.00
2022-08-22T03:13:04.756Z,3.50
2022-08-22T03:14:04.819Z,3.10
2022-08-22T03:15:04.740Z,3.10
2022-08-22T03:16:04.728Z,2.90
2022-08-22T03:17:04.704Z,3.10
2022-08-22T03:18:04.704Z,3.30
2022-08-22T03:19:04.670Z,3.00
2022-08-22T03:20:04.717Z,2.80
2022-08-22T03:21:04.650Z,3.00
2022-08-22T03:22:04.639Z,2.90
2022-08-22T03:23:04.883Z,3.50
2022-08-22T03:24:04.672Z,4.10
2022-08-22T03:25:04.617Z,4.50
2022-08-22T03:26:07.696Z,3.70
2022-08-22T03:27:04.618Z,3.60
2022-08-22T03:28:04.707Z,3.30
2022-08-22T03:29:04.554Z,3.90
2022-08-22T03:30:04.540Z,3.70
2022-08-22T03:31:04.626Z,3.40
2022-08-22T03:32:04.780Z,3.00
2022-08-22T03:33:04.538Z,3.40
2022-08-22T03:34:04.758Z,3.00
2022-08-22T03:35:04.668Z,3.10
2022-08-22T03:36:04.539Z,3.00
2022-08-22T03:37:04.475Z,3.60
2022-08-22T03:38:04.579Z,3.50
2022-08-22T03:39:17.193Z,3.30
2022-08-22T03:40:04.510Z,3.40
2022-08-22T03:41:04.557Z,3.20
2022-08-22T03:42:04.410Z,5.60
2022-08-22T03:43:04.409Z,4.00
2022-08-22T03:44:04.475Z,3.40
2022-08-22T03:45:06.932Z,3.90
2022-08-22T03:46:04.406Z,3.40
2022-08-22T03:47:04.359Z,3.00
2022-08-22T03:48:04.360Z,3.00
2022-08-22T03:49:04.390Z,2.70
2022-08-22T03:50:04.448Z,3.20
2022-08-22T03:51:04.315Z,3.70
2022-08-22T03:52:04.297Z,3.30
2022-08-22T03:53:04.302Z,2.80
2022-08-22T03:54:04.328Z,2.70
2022-08-22T03:55:04.306Z,2.90
2022-08-22T03:56:04.329Z,2.70
2022-08-22T03:57:04.270Z,2.90
2022-08-22T03:58:05.193Z,2.50
2022-08-22T03:59:10.224Z,3.30
2022-08-22T04:00:05.506Z,2.60
2022-08-22T04:01:04.261Z,2.70
2022-08-22T04:02:04.238Z,2.30
2022-08-22T04:03:05.167Z,2.20
2022-08-22T04:04:04.175Z,2.20
2022-08-22T04:05:04.154Z,2.30
2022-08-22T04:06:04.401Z,2.70
2022-08-22T04:07:04.150Z,2.70
2022-08-22T04:08:04.180Z,2.40
2022-08-22T04:09:04.249Z,2.70
2022-08-22T04:10:04.101Z,2.70
2022-08-22T04:11:04.138Z,2.80
2022-08-22T04:12:04.091Z,2.80
2022-08-22T04:13:04.106Z,2.50
2022-08-22T04:14:04.135Z,2.50
2022-08-22T04:15:04.054Z,2.50
2022-08-22T04:16:04.043Z,2.50
2022-08-22T04:17:04.701Z,2.20
2022-08-22T04:18:04.010Z,3.00
2022-08-22T04:19:04.006Z,3.30
2022-08-22T04:20:04.167Z,3.00
2022-08-22T04:21:03.992Z,2.80
2022-08-22T04:22:03.970Z,3.40
2022-08-22T04:23:03.960Z,3.00
2022-08-22T04:24:03.986Z,2.40
2022-08-22T04:25:07.846Z,2.70
2022-08-22T04:26:04.423Z,2.60
2022-08-22T04:27:03.916Z,2.30
2022-08-22T04:28:03.960Z,2.50
2022-08-22T04:29:03.935Z,2.40
2022-08-22T04:30:03.874Z,2.50
2022-08-22T04:31:03.888Z,2.60
2022-08-22T04:32:03.908Z,4.10
2022-08-22T04:33:04.697Z,4.80
2022-08-22T04:34:03.836Z,5.00
2022-08-22T04:35:03.826Z,4.10
2022-08-22T04:36:04.648Z,4.50
2022-08-22T04:37:04.004Z,2.90
2022-08-22T04:38:04.523Z,3.00
2022-08-22T04:39:03.850Z,2.90
2022-08-22T04:40:03.921Z,2.90
2022-08-22T04:41:04.759Z,3.20
2022-08-22T04:42:29.199Z,2.80
2022-08-22T04:43:04.667Z,2.80
2022-08-22T04:44:03.769Z,2.50
2022-08-22T04:45:03.741Z,2.40
2022-08-22T04:46:05.016Z,2.60
2022-08-22T04:47:03.685Z,3.00
2022-08-22T04:48:03.674Z,2.70
2022-08-22T04:49:03.752Z,2.60
2022-08-22T04:50:03.723Z,2.90
2022-08-22T04:51:03.845Z,2.70
2022-08-22T04:52:03.680Z,2.40
2022-08-22T04:53:03.626Z,2.60
2022-08-22T04:54:03.607Z,2.50
2022-08-22T04:55:03.642Z,2.50
2022-08-22T04:56:07.347Z,2.60
2022-08-22T04:57:03.600Z,2.80
2022-08-22T04:58:06.738Z,3.00
2022-08-22T04:59:03.556Z,3.70
2022-08-22T05:00:03.575Z,3.50
2022-08-22T05:01:03.596Z,3.40
2022-08-22T05:02:03.711Z,3.50
2022-08-22T05:03:03.513Z,2.90
2022-08-22T05:04:03.515Z,2.50
2022-08-22T05:05:03.501Z,2.70
2022-08-22T05:06:03.483Z,2.50
2022-08-22T05:07:03.518Z,2.80
2022-08-22T05:08:03.545Z,3.10
2022-08-22T05:09:03.458Z,3.30
2022-08-22T05:10:11.668Z,4.00
2022-08-22T05:11:03.462Z,3.30
2022-08-22T05:12:03.431Z,3.40
2022-08-22T05:13:04.107Z,2.80
2022-08-22T05:14:03.437Z,2.70
2022-08-22T05:15:03.389Z,3.00
2022-08-22T05:16:03.373Z,2.70
2022-08-22T05:17:03.623Z,2.70
2022-08-22T05:18:03.368Z,2.90
2022-08-22T05:19:03.347Z,2.70
2022-08-22T05:20:03.363Z,2.90
2022-08-22T05:21:03.353Z,2.70
2022-08-22T05:22:03.287Z,2.90
2022-08-22T05:23:05.837Z,2.90
2022-08-22T05:24:03.272Z,3.00
2022-08-22T05:25:03.266Z,3.00
2022-08-22T05:26:03.330Z,2.80
2022-08-22T05:27:03.538Z,2.70
2022-08-22T05:28:03.234Z,3.00
2022-08-22T05:31:30.303Z,3.10
2022-08-22T05:32:31.259Z,3.50
2022-08-22T05:33:31.350Z,3.30
2022-08-22T05:34:31.244Z,3.50
2022-08-22T05:35:31.224Z,3.20
2022-08-22T05:36:31.282Z,3.90
2022-08-22T05:37:31.355Z,3.90
2022-08-22T05:38:31.208Z,5.10
2022-08-22T05:39:31.358Z,3.80
2022-08-22T05:40:31.414Z,5.30
2022-08-22T05:41:31.187Z,4.50
2022-08-22T05:42:31.797Z,4.40
2022-08-22T05:43:31.210Z,3.80
2022-08-22T05:44:31.142Z,4.10
2022-08-22T05:45:31.113Z,4.50
2022-08-22T05:46:31.153Z,4.50
2022-08-22T05:47:31.180Z,4.60
2022-08-22T05:48:31.161Z,4.90
2022-08-22T05:49:31.124Z,4.70
2022-08-22T05:50:31.090Z,5.00
2022-08-22T05:51:31.042Z,5.50
2022-08-22T05:52:31.070Z,5.20
2022-08-22T05:53:31.735Z,5.90
2022-08-22T05:54:33.531Z,6.40
2022-08-22T05:55:31.097Z,5.90
2022-08-22T05:56:31.031Z,6.10
2022-08-22T05:57:30.983Z,6.40
2022-08-22T05:58:30.974Z,6.90
2022-08-22T05:59:30.966Z,6.20
2022-08-22T06:00:31.094Z,6.10
2022-08-22T06:01:31.355Z,6.50
2022-08-22T06:02:30.933Z,5.60
2022-08-22T06:03:30.913Z,5.50
2022-08-22T06:04:31.201Z,5.50
2022-08-22T06:05:31.265Z,6.40
2022-08-22T06:06:30.949Z,6.10
2022-08-22T06:07:30.871Z,5.30
2022-08-22T06:08:30.976Z,6.30
2022-08-22T06:09:35.310Z,4.80
2022-08-22T06:10:30.907Z,5.80
2022-08-22T06:11:34.087Z,5.20
2022-08-22T06:12:31.360Z,5.00
2022-08-22T06:13:31.116Z,4.50
2022-08-22T06:14:31.080Z,4.80
2022-08-22T06:15:31.147Z,4.00
2022-08-22T06:16:31.942Z,3.80
2022-08-22T06:17:31.282Z,3.80
2022-08-22T06:18:31.267Z,3.90
2022-08-22T06:19:30.932Z,3.90
2022-08-22T06:20:31.220Z,4.00
2022-08-22T06:21:38.679Z,4.10
2022-08-22T06:22:30.940Z,3.40
2022-08-22T06:23:31.089Z,3.90
2022-08-22T06:24:31.254Z,3.40
2022-08-22T06:25:30.855Z,3.50
2022-08-22T06:26:30.994Z,3.40
2022-08-22T06:27:31.389Z,3.60
2022-08-22T06:28:31.135Z,3.40
2022-08-22T06:29:31.101Z,4.00
2022-08-22T06:30:31.203Z,3.70
2022-08-22T06:31:30.932Z,4.30
2022-08-22T06:32:58.309Z,3.50
2022-08-22T06:33:31.044Z,3.40
2022-08-22T06:34:30.951Z,3.40
2022-08-22T06:35:31.029Z,3.10
2022-08-22T06:36:30.823Z,3.20
2022-08-22T06:37:30.854Z,3.40
2022-08-22T06:38:30.905Z,3.80
2022-08-22T06:39:30.574Z,3.60
2022-08-22T06:40:30.663Z,3.40
2022-08-22T06:41:30.784Z,3.90
2022-08-22T06:42:31.022Z,3.40
2022-08-22T06:43:30.868Z,3.10
2022-08-22T06:44:30.747Z,3.50
2022-08-22T06:45:30.863Z,3.30
2022-08-22T06:46:30.936Z,3.70
2022-08-22T06:47:30.865Z,3.50
2022-08-22T06:48:30.910Z,3.20
2022-08-22T06:49:30.750Z,3.40
2022-08-22T06:50:30.674Z,3.10
2022-08-22T06:51:30.645Z,3.00
2022-08-22T06:52:31.549Z,3.50
2022-08-22T06:53:30.673Z,3.30
2022-08-22T06:54:34.284Z,3.40
2022-08-22T06:55:30.428Z,2.80
2022-08-22T06:56:30.707Z,3.50
2022-08-22T06:57:30.527Z,3.20
2022-08-22T06:58:33.839Z,3.10
2022-08-22T06:59:30.647Z,3.30
2022-08-22T07:00:30.431Z,3.20
2022-08-22T07:01:30.613Z,3.10
2022-08-22T07:02:30.752Z,2.80
2022-08-22T07:03:30.258Z,3.20
2022-08-22T07:04:30.568Z,3.10
2022-08-22T07:05:30.196Z,2.70
2022-08-22T07:06:30.293Z,2.80
2022-08-22T07:07:30.177Z,3.00
2022-08-22T07:08:30.200Z,2.90
2022-08-22T07:09:30.164Z,2.50
2022-08-22T07:10:30.172Z,2.90
2022-08-22T07:11:30.144Z,3.20
2022-08-22T07:12:30.169Z,2.90
2022-08-22T07:13:30.139Z,2.90
2022-08-22T07:14:30.104Z,2.80
2022-08-22T07:15:30.110Z,3.10
2022-08-22T07:16:30.083Z,2.70
2022-08-22T07:17:30.068Z,2.50
2022-08-22T07:18:30.087Z,3.00
2022-08-22T07:19:30.047Z,2.50
2022-08-22T07:20:30.036Z,2.50
2022-08-22T07:21:30.023Z,2.70
2022-08-22T07:22:30.016Z,2.60
2022-08-22T07:23:30.005Z,2.30
2022-08-22T07:24:30.032Z,2.70
2022-08-22T07:25:29.967Z,2.80
2022-08-22T07:26:29.970Z,2.70
2022-08-22T07:27:29.958Z,2.60
2022-08-22T07:28:37.016Z,2.40
2022-08-22T07:29:29.935Z,2.50
2022-08-22T07:30:29.958Z,2.30
2022-08-22T07:31:31.783Z,2.50
2022-08-22T07:32:29.908Z,3.00
2022-08-22T07:33:29.894Z,2.50
2022-08-22T07:34:29.873Z,2.70
2022-08-22T07:35:29.864Z,2.50
2022-08-22T07:36:31.980Z,2.60
2022-08-22T07:37:29.866Z,2.40
2022-08-22T07:38:29.841Z,2.50
2022-08-22T07:39:29.828Z,2.60
2022-08-22T07:40:29.807Z,2.30
2022-08-22T07:41:29.801Z,2.70
2022-08-22T07:42:30.339Z,2.70
2022-08-22T07:43:29.781Z,2.70
2022-08-22T07:44:29.765Z,2.50
2022-08-22T07:45:29.754Z,2.50
2022-08-22T07:46:29.735Z,2.70
2022-08-22T07:47:29.735Z,2.40
2022-08-22T07:48:29.751Z,2.70
2022-08-22T07:49:29.715Z,2.40
2022-08-22T07:50:29.710Z,2.30
2022-08-22T07:51:29.680Z,2.60
2022-08-22T07:52:29.663Z,2.90
2022-08-22T07:53:29.664Z,2.70
2022-08-22T07:54:29.679Z,2.60
2022-08-22T07:55:29.642Z,2.60
2022-08-22T07:56:29.629Z,2.50
2022-08-22T07:57:29.624Z,2.40
2022-08-22T07:58:29.602Z,2.40
2022-08-22T07:59:29.600Z,2.40
2022-08-22T08:00:29.634Z,2.30
2022-08-22T08:01:29.647Z,2.40
2022-08-22T08:02:29.561Z,2.30
2022-08-22T08:03:29.608Z,2.80
2022-08-22T08:04:29.539Z,2.50
2022-08-22T08:05:29.532Z,2.60
2022-08-22T08:06:29.552Z,2.50
2022-08-22T08:07:29.510Z,2.40
2022-08-22T08:08:29.484Z,2.60
2022-08-22T08:09:29.480Z,2.40
2022-08-22T08:10:29.467Z,2.40
2022-08-22T08:11:29.717Z,2.50
2022-08-22T08:12:29.493Z,2.60
2022-08-22T08:13:29.435Z,2.40
2022-08-22T08:14:29.425Z,2.30
2022-08-22T08:15:29.418Z,2.30
2022-08-22T08:16:29.402Z,2.80
2022-08-22T08:17:32.162Z,2.50
2022-08-22T08:18:29.407Z,2.50
2022-08-22T08:19:29.370Z,2.70
2022-08-22T08:20:29.351Z,2.40
2022-08-22T08:21:29.360Z,2.50
2022-08-22T08:22:29.336Z,2.30
2022-08-22T08:23:29.329Z,2.10
2022-08-22T08:24:29.362Z,2.20
2022-08-22T08:25:29.303Z,2.80
2022-08-22T08:26:29.300Z,2.20
2022-08-22T08:27:29.283Z,2.40
2022-08-22T08:28:29.265Z,2.50
2022-08-22T08:29:29.255Z,2.60
2022-08-22T08:30:29.268Z,2.60
2022-08-22T08:31:29.224Z,2.60
2022-08-22T08:32:29.261Z,2.20
2022-08-22T08:33:29.209Z,2.60
2022-08-22T08:34:29.186Z,2.40
2022-08-22T08:35:29.178Z,2.30
2022-08-22T08:36:29.217Z,2.20
2022-08-22T08:37:29.158Z,2.20
2022-08-22T08:38:29.151Z,2.30
2022-08-22T08:39:35.231Z,2.20
2022-08-22T08:40:29.135Z,2.40
2022-08-22T08:41:29.125Z,2.40
2022-08-22T08:42:29.177Z,2.50
2022-08-22T08:43:29.095Z,2.70
2022-08-22T08:44:29.085Z,2.40
2022-08-22T08:45:29.129Z,2.20
2022-08-22T08:46:29.054Z,2.10
2022-08-22T08:47:29.127Z,2.60
2022-08-22T08:48:29.080Z,2.90
2022-08-22T08:49:29.020Z,2.30
2022-08-22T08:50:29.024Z,2.50
2022-08-22T08:51:29.013Z,2.30
2022-08-22T08:52:28.987Z,2.80
2022-08-22T08:53:28.976Z,2.50
2022-08-22T08:54:29.541Z,2.60
2022-08-22T08:55:28.957Z,2.20
2022-08-22T08:56:29.012Z,2.50
2022-08-22T08:57:29.024Z,2.50
2022-08-22T08:58:28.925Z,2.40
2022-08-22T08:59:28.913Z,2.60
2022-08-22T09:00:30.374Z,2.20
2022-08-22T09:01:28.929Z,2.60
2022-08-22T09:02:34.984Z,2.80
2022-08-22T09:03:31.111Z,2.60
2022-08-22T09:04:28.912Z,2.90
2022-08-22T09:05:28.843Z,2.70
2022-08-22T09:06:29.488Z,2.60
2022-08-22T09:07:29.769Z,2.50
2022-08-22T09:08:28.805Z,2.40
2022-08-22T09:09:28.797Z,2.80
2022-08-22T09:40:29.919Z,2.90
2022-08-22T09:40:34.884Z,2.90
2022-08-22T09:41:34.880Z,2.80
2022-08-22T09:42:34.867Z,2.90
2022-08-22T09:43:34.856Z,2.90
2022-08-22T09:44:34.874Z,2.70
2022-08-22T09:45:35.015Z,2.90
2022-08-22T09:46:36.958Z,2.70
2022-08-22T09:47:34.832Z,3.00
2022-08-22T09:48:34.792Z,3.20
2022-08-22T09:49:34.783Z,2.60
2022-08-22T09:50:34.782Z,3.20
2022-08-22T09:51:34.834Z,3.30
2022-08-22T09:52:36.924Z,2.80
2022-08-22T09:53:34.747Z,2.90
2022-08-22T09:54:34.725Z,2.70
2022-08-22T09:55:35.434Z,2.80
2022-08-22T09:56:34.720Z,3.10
2022-08-22T09:57:34.758Z,3.20
2022-08-22T09:58:37.699Z,2.50
2022-08-22T09:59:34.737Z,3.00
2022-08-22T10:00:34.687Z,3.10
2022-08-22T10:01:34.707Z,2.80
2022-08-22T10:02:34.646Z,2.60
2022-08-22T10:03:34.817Z,2.70
2022-08-22T10:04:34.612Z,2.90
2022-08-22T10:05:40.592Z,2.90
2022-08-22T10:06:34.640Z,2.80
2022-08-22T10:07:34.887Z,2.50
2022-08-22T10:08:34.614Z,2.70
2022-08-22T10:09:34.616Z,2.30
2022-08-22T10:10:34.596Z,2.10
2022-08-22T10:11:34.578Z,2.80
2022-08-22T10:12:36.016Z,2.70
2022-08-22T10:13:34.510Z,2.80
2022-08-22T10:14:34.528Z,2.80
2022-08-22T10:15:34.530Z,2.70
2022-08-22T10:16:34.488Z,3.00
2022-08-22T10:17:34.488Z,3.00
2022-08-22T10:18:34.469Z,2.90
2022-08-22T10:19:34.463Z,3.80
2022-08-22T10:20:34.445Z,2.90
2022-08-22T10:21:35.808Z,3.30
2022-08-22T10:22:34.421Z,2.90
2022-08-22T10:23:34.405Z,2.60
2022-08-22T10:24:36.019Z,2.60
2022-08-22T10:25:34.413Z,2.30
2022-08-22T10:26:38.620Z,2.70
2022-08-22T10:27:34.407Z,2.50
2022-08-22T10:28:34.350Z,2.40
2022-08-22T10:29:34.345Z,2.10
2022-08-22T10:30:34.320Z,2.60
2022-08-22T10:31:34.311Z,2.80
2022-08-22T10:32:34.316Z,2.80
2022-08-22T10:33:34.325Z,2.30
2022-08-22T10:34:34.284Z,2.60
2022-08-22T10:35:34.386Z,2.60
2022-08-22T10:36:34.307Z,2.90
2022-08-22T10:37:34.274Z,2.50
2022-08-22T10:38:34.350Z,3.60
2022-08-22T10:39:34.304Z,2.70
2022-08-22T10:40:34.218Z,2.80
2022-08-22T10:41:34.212Z,3.00
2022-08-22T10:42:35.265Z,2.80
2022-08-22T10:43:34.266Z,2.50
2022-08-22T10:44:34.188Z,2.50
2022-08-22T10:45:36.298Z,3.30
2022-08-22T10:46:34.144Z,2.30
2022-08-22T10:47:34.190Z,2.30
2022-08-22T10:48:34.123Z,2.30
2022-08-22T10:49:34.146Z,2.70
2022-08-22T10:50:34.109Z,2.90
2022-08-22T10:51:34.169Z,2.40
2022-08-22T10:52:34.117Z,2.70
2022-08-22T10:53:34.818Z,2.70
2022-08-22T10:54:34.211Z,2.60
2022-08-22T10:55:34.066Z,2.90
2022-08-22T10:56:34.782Z,2.80
2022-08-22T10:57:34.136Z,2.60
2022-08-22T10:58:34.070Z,2.70
2022-08-22T10:59:34.010Z,2.70
2022-08-22T11:00:34.042Z,2.60
2022-08-22T11:01:38.368Z,2.70
2022-08-22T11:02:34.105Z,2.60
2022-08-22T11:03:34.196Z,3.10
2022-08-22T11:04:34.019Z,2.80
2022-08-22T11:05:33.940Z,2.80
2022-08-22T11:06:33.931Z,2.80
2022-08-22T11:07:33.916Z,2.70
2022-08-22T11:08:34.875Z,2.80
2022-08-22T11:09:37.135Z,2.80
2022-08-22T11:10:34.959Z,2.70
2022-08-22T11:11:33.872Z,2.80
2022-08-22T11:12:35.791Z,2.90
2022-08-22T11:13:33.960Z,2.40
2022-08-22T11:14:34.781Z,2.50
2022-08-22T11:15:34.907Z,3.10
2022-08-22T11:16:36.573Z,2.80
2022-08-22T11:17:40.737Z,3.20
2022-08-22T11:18:33.908Z,2.60
2022-08-22T11:19:33.914Z,2.50
2022-08-22T11:20:33.773Z,2.70
2022-08-22T11:21:33.794Z,2.80
2022-08-22T11:22:33.757Z,2.80
2022-08-22T11:23:33.831Z,2.70
2022-08-22T11:24:35.665Z,2.40
2022-08-22T11:25:38.626Z,2.50
2022-08-22T11:26:41.705Z,2.40
2022-08-22T11:27:37.748Z,2.50
2022-08-22T11:28:33.747Z,2.40
2022-08-22T11:29:33.674Z,2.20
2022-08-22T11:30:36.343Z,2.40
2022-08-22T11:31:36.651Z,2.80
2022-08-22T11:32:33.906Z,2.70
2022-08-22T11:33:46.717Z,2.60
2022-08-22T11:34:33.626Z,2.50
2022-08-22T11:35:33.607Z,2.70
2022-08-22T11:36:34.292Z,2.50
2022-08-22T11:37:42.879Z,2.70
2022-08-22T11:38:36.211Z,2.50
2022-08-22T11:39:34.074Z,2.80
2022-08-22T11:40:34.352Z,2.50
2022-08-22T11:41:33.733Z,2.80
2022-08-22T11:42:33.667Z,2.40
2022-08-22T11:43:33.968Z,2.40
2022-08-22T11:44:34.340Z,2.70
2022-08-22T11:45:34.000Z,2.50
2022-08-22T11:46:33.842Z,2.50
2022-08-22T11:47:33.854Z,2.80
2022-08-22T11:48:33.727Z,2.10
2022-08-22T11:49:34.471Z,2.40
2022-08-22T11:50:33.569Z,2.70
2022-08-22T11:51:34.132Z,2.70
2022-08-22T11:52:33.675Z,2.30
2022-08-22T11:53:33.824Z,2.50
2022-08-22T11:54:33.781Z,2.40
2022-08-22T11:55:34.561Z,2.70
2022-08-22T11:56:33.801Z,2.90
2022-08-22T11:57:33.906Z,2.50
2022-08-22T11:58:33.662Z,2.90
2022-08-22T11:59:33.625Z,2.30
2022-08-22T12:00:33.730Z,2.50
2022-08-22T12:01:34.429Z,3.00
2022-08-22T12:02:33.764Z,2.60
2022-08-22T12:03:33.783Z,2.60
2022-08-22T12:04:33.662Z,2.70
2022-08-22T12:05:34.471Z,2.80
2022-08-22T12:06:34.675Z,2.80
2022-08-22T12:07:33.368Z,2.80
2022-08-22T12:08:33.631Z,2.90
2022-08-22T12:09:33.840Z,2.90
2022-08-22T12:10:33.729Z,2.80
2022-08-22T12:11:33.757Z,3.10
2022-08-22T12:12:33.664Z,3.10
2022-08-22T12:13:34.737Z,2.80
2022-08-22T12:14:33.414Z,3.10
2022-08-22T12:15:33.753Z,2.70
2022-08-22T12:16:33.511Z,2.50
2022-08-22T12:17:55.576Z,3.10
2022-08-22T12:18:33.240Z,3.20
2022-08-22T12:19:33.271Z,2.60
2022-08-22T12:20:33.577Z,2.80
2022-08-22T12:21:33.502Z,2.90
2022-08-22T12:22:33.563Z,2.70
2022-08-22T12:23:43.407Z,2.70
2022-08-22T12:24:33.356Z,2.90
2022-08-22T12:25:33.124Z,2.90
2022-08-22T12:26:34.965Z,2.90
2022-08-22T12:27:33.132Z,2.80
2022-08-22T12:28:39.107Z,2.60
2022-08-22T12:29:34.068Z,2.70
2022-08-22T12:30:33.018Z,2.60
2022-08-22T12:31:33.047Z,2.20
2022-08-22T12:32:34.152Z,2.70
2022-08-22T12:33:33.217Z,3.00
2022-08-22T12:34:32.950Z,2.40
2022-08-22T12:35:33.034Z,2.40
2022-08-22T12:36:33.287Z,2.80
2022-08-22T12:37:33.116Z,2.70
2022-08-22T12:38:37.993Z,2.20
2022-08-22T12:39:32.953Z,2.50
2022-08-22T12:40:33.381Z,2.50
2022-08-22T12:41:34.714Z,2.80
2022-08-22T12:42:34.014Z,2.70
2022-08-22T12:43:32.896Z,2.40
2022-08-22T12:44:33.636Z,2.30
2022-08-22T12:45:33.152Z,2.80
2022-08-22T12:46:33.150Z,2.60
2022-08-22T12:47:34.303Z,2.50
2022-08-22T12:48:32.871Z,3.20
2022-08-22T12:49:32.786Z,2.50
2022-08-22T12:50:33.838Z,2.60
2022-08-22T12:51:33.814Z,2.50
2022-08-22T12:52:33.219Z,2.60
2022-08-22T12:53:32.758Z,2.40
2022-08-22T12:54:33.024Z,2.80
2022-08-22T12:55:33.039Z,2.80
2022-08-22T12:56:32.969Z,2.20
2022-08-22T12:57:33.951Z,2.40
2022-08-22T12:58:35.617Z,2.60
2022-08-22T12:59:32.999Z,2.60
2022-08-22T13:00:32.725Z,2.50
2022-08-22T13:01:34.576Z,2.50
2022-08-22T13:02:33.106Z,2.50
2022-08-22T13:03:33.066Z,2.70
2022-08-22T13:04:34.221Z,2.70
2022-08-22T13:05:40.409Z,2.30
2022-08-22T13:06:32.891Z,2.30
2022-08-22T13:07:33.044Z,2.70
2022-08-22T13:08:32.871Z,2.60
2022-08-22T13:09:33.043Z,2.10
2022-08-22T13:10:33.105Z,2.70
2022-08-22T13:11:32.633Z,2.60
2022-08-22T13:12:32.703Z,2.40
2022-08-22T13:13:37.224Z,2.70
2022-08-22T13:14:32.721Z,2.20
2022-08-22T13:15:32.826Z,2.10
2022-08-22T13:16:32.838Z,2.50
2022-08-22T13:17:32.885Z,2.70
2022-08-22T13:18:32.785Z,2.30
2022-08-22T13:19:33.100Z,2.20
2022-08-22T13:20:32.898Z,2.50
2022-08-22T13:21:34.959Z,2.80
2022-08-22T13:22:32.683Z,2.50
2022-08-22T13:23:32.917Z,2.50
2022-08-22T13:24:38.817Z,2.40
2022-08-22T13:25:32.869Z,2.60
2022-08-22T13:26:33.960Z,2.30
2022-08-22T13:27:32.734Z,2.20
2022-08-22T13:28:32.782Z,2.30
2022-08-22T13:29:39.649Z,2.50
2022-08-22T13:30:32.604Z,2.40
2022-08-22T13:31:32.746Z,2.50
2022-08-22T13:32:33.315Z,2.60
2022-08-22T13:33:32.738Z,2.50
2022-08-22T13:34:35.792Z,2.60
2022-08-22T13:35:32.526Z,2.10
2022-08-22T13:36:32.342Z,2.40
2022-08-22T13:37:32.332Z,2.40
2022-08-22T13:38:32.339Z,2.00
2022-08-22T13:39:32.316Z,2.20
2022-08-22T13:40:32.291Z,2.10
2022-08-22T13:41:32.275Z,2.40
2022-08-22T13:42:32.409Z,2.50
2022-08-22T13:43:32.234Z,2.10
2022-08-22T13:44:32.680Z,2.30
2022-08-22T13:45:32.314Z,2.20
2022-08-22T13:46:35.558Z,2.10
2022-08-22T13:47:32.190Z,2.30
2022-08-22T13:48:32.181Z,2.20
2022-08-22T13:49:32.171Z,2.20
2022-08-22T13:50:53.206Z,2.20
2022-08-22T13:51:32.208Z,2.10